Time;durP1;ratioP1;P1;durP2;ratioP2;P2;SDS_P1;SDS_P2;PMS_P1;PMS_P2;Temp;Humidity;BMP_temperature;BMP_pressure;BME280_temperature;BME280_humidity;BME280_pressure;Samples;Min_cycle;Max_cycle;Signal;HPM_P1;HPM_P2
2023/12/14 00:03:12;;;;;;;34.1;18.8;;;;;;;4.64;87.45;;;;;
2023/12/14 00:13:12;;;;;;;34.1;18.8;;;;;;;4.74;87.76;;;;;
2023/12/14 00:23:13;;;;;;;34.1;18.8;;;;;;;4.77;87.66;;;;;
2023/12/14 00:34:12;;;;;;;31.2;17.2;;;;;;;4.79;87.3;;;;;
2023/12/14 00:44:12;;;;;;;31.2;17.2;;;;;;;4.78;87.39;;;;;
2023/12/14 00:55:12;;;;;;;31.2;17.2;;;;;;;4.71;87.44;;;;;
2023/12/14 01:05:12;;;;;;;33.3;17.8;;;;;;;4.73;87.57;;;;;
2023/12/14 01:15:12;;;;;;;33.3;17.8;;;;;;;4.64;87.69;;;;;
2023/12/14 01:26:12;;;;;;;33.3;17.8;;;;;;;4.61;87.66;;;;;
2023/12/14 01:36:13;;;;;;;27.6;14.4;;;;;;;4.65;88.11;;;;;
2023/12/14 01:47:12;;;;;;;27.6;14.4;;;;;;;4.37;88.02;;;;;
2023/12/14 01:57:12;;;;;;;27.6;14.4;;;;;;;4.49;88.47;;;;;
2023/12/14 02:07:12;;;;;;;22.1;12.4;;;;;;;4.47;88.31;;;;;
2023/12/14 02:18:12;;;;;;;22.1;12.4;;;;;;;4.36;88.42;;;;;
2023/12/14 02:29:12;;;;;;;22.1;12.4;;;;;;;4.52;88.45;;;;;
2023/12/14 02:39:12;;;;;;;29.1;16.6;;;;;;;4.6;88.17;;;;;
2023/12/14 02:50:13;;;;;;;29.1;16.6;;;;;;;4.56;87.69;;;;;
2023/12/14 03:01:12;;;;;;;33.1;15.9;;;;;;;4.57;88.02;;;;;
2023/12/14 03:12:12;;;;;;;33.1;15.9;;;;;;;4.67;87.81;;;;;
2023/12/14 03:22:12;;;;;;;33.1;15.9;;;;;;;4.65;87.86;;;;;
2023/12/14 03:33:12;;;;;;;31.4;16.3;;;;;;;4.64;87.86;;;;;
2023/12/14 03:43:13;;;;;;;31.4;16.3;;;;;;;4.49;88.21;;;;;
2023/12/14 03:53:13;;;;;;;31.4;16.3;;;;;;;4.43;88.59;;;;;
2023/12/14 04:04:12;;;;;;;26.3;15.9;;;;;;;4.49;88.89;;;;;
2023/12/14 04:14:13;;;;;;;26.3;15.9;;;;;;;4.47;88.75;;;;;
2023/12/14 04:25:12;;;;;;;26.3;15.9;;;;;;;4.67;88.41;;;;;
2023/12/14 04:36:12;;;;;;;33.1;15.3;;;;;;;4.7;88.1;;;;;
2023/12/14 04:46:13;;;;;;;33.1;15.3;;;;;;;4.69;88.08;;;;;
2023/12/14 04:57:13;;;;;;;33.1;15.3;;;;;;;4.68;87.64;;;;;
2023/12/14 05:08:12;;;;;;;27.2;14.6;;;;;;;4.76;87.59;;;;;
2023/12/14 05:19:13;;;;;;;27.2;14.6;;;;;;;4.71;87.69;;;;;
2023/12/14 05:30:13;;;;;;;27.2;14.6;;;;;;;4.6;88;;;;;
2023/12/14 05:41:13;;;;;;;28.7;15.4;;;;;;;4.48;88.06;;;;;
2023/12/14 05:51:13;;;;;;;28.7;15.4;;;;;;;4.55;88.65;;;;;
2023/12/14 06:02:12;;;;;;;25;13.9;;;;;;;4.69;88.51;;;;;
2023/12/14 06:13:12;;;;;;;25;13.9;;;;;;;4.65;88.26;;;;;
2023/12/14 06:24:13;;;;;;;25;13.9;;;;;;;4.53;88.28;;;;;
2023/12/14 06:34:13;;;;;;;39.5;19;;;;;;;4.63;88.48;;;;;
2023/12/14 06:45:12;;;;;;;39.5;19;;;;;;;4.68;88.57;;;;;
2023/12/14 06:55:14;;;;;;;39.5;19;;;;;;;4.55;88.2;;;;;
2023/12/14 07:05:13;;;;;;;35.6;20.1;;;;;;;4.45;88.9;;;;;
2023/12/14 07:15:13;;;;;;;35.6;20.1;;;;;;;4.52;88.79;;;;;
2023/12/14 07:26:13;;;;;;;35.6;20.1;;;;;;;4.63;89.01;;;;;
2023/12/14 07:37:13;;;;;;;34.4;19.5;;;;;;;4.62;88.7;;;;;
2023/12/14 07:47:13;;;;;;;34.4;19.5;;;;;;;4.71;88.53;;;;;
2023/12/14 07:58:13;;;;;;;34.4;19.5;;;;;;;4.66;88.57;;;;;
2023/12/14 08:08:13;;;;;;;29.8;17.6;;;;;;;4.89;88.88;;;;;
2023/12/14 08:19:13;;;;;;;29.8;17.6;;;;;;;4.9;88.12;;;;;
2023/12/14 08:29:13;;;;;;;29.8;17.6;;;;;;;4.73;87.76;;;;;
2023/12/14 08:39:13;;;;;;;24.3;14.6;;;;;;;4.84;87.88;;;;;
2023/12/14 08:49:13;;;;;;;24.3;14.6;;;;;;;5.01;87.94;;;;;
2023/12/14 09:00:12;;;;;;;24.3;14.6;;;;;;;5.14;87.29;;;;;
2023/12/14 09:10:13;;;;;;;21.8;11.5;;;;;;;4.92;87.23;;;;;
2023/12/14 09:21:14;;;;;;;21.8;11.5;;;;;;;5.03;87.06;;;;;
2023/12/14 09:31:13;;;;;;;26.2;14.4;;;;;;;5.28;87.05;;;;;
2023/12/14 09:41:13;;;;;;;26.2;14.4;;;;;;;5.32;85.27;;;;;
2023/12/14 09:51:13;;;;;;;26.2;14.4;;;;;;;5.51;85.84;;;;;
2023/12/14 10:01:13;;;;;;;21.8;12.8;;;;;;;5.57;86.05;;;;;
2023/12/14 10:12:13;;;;;;;21.8;12.8;;;;;;;5.74;84.17;;;;;
2023/12/14 10:22:13;;;;;;;21.8;12.8;;;;;;;5.67;84.93;;;;;
2023/12/14 10:32:14;;;;;;;23.3;13.7;;;;;;;5.86;84.22;;;;;
2023/12/14 10:42:13;;;;;;;23.3;13.7;;;;;;;5.66;84.59;;;;;
2023/12/14 10:53:13;;;;;;;23.3;13.7;;;;;;;5.67;84.57;;;;;
2023/12/14 11:03:13;;;;;;;20.9;12.7;;;;;;;5.57;85.47;;;;;
2023/12/14 11:14:13;;;;;;;20.9;12.7;;;;;;;5.51;85.14;;;;;
2023/12/14 11:25:13;;;;;;;20.9;12.7;;;;;;;5.31;85.95;;;;;
2023/12/14 11:36:13;;;;;;;16.7;11.8;;;;;;;5.34;86.41;;;;;
2023/12/14 11:47:13;;;;;;;16.7;11.8;;;;;;;5.38;86.69;;;;;
2023/12/14 11:58:13;;;;;;;16.7;11.8;;;;;;;5.49;86.33;;;;;
2023/12/14 12:08:13;;;;;;;22.9;13.7;;;;;;;5.28;86.49;;;;;
2023/12/14 12:19:13;;;;;;;22.9;13.7;;;;;;;5.3;86.8;;;;;
2023/12/14 12:30:13;;;;;;;25;14.9;;;;;;;5.14;87.5;;;;;
2023/12/14 12:40:15;;;;;;;25;14.9;;;;;;;5.18;87.67;;;;;
2023/12/14 12:51:13;;;;;;;25;14.9;;;;;;;5.23;87.68;;;;;
2023/12/14 13:02:13;;;;;;;17.5;10.5;;;;;;;5.21;87.14;;;;;
2023/12/14 13:12:13;;;;;;;17.5;10.5;;;;;;;5.14;87.6;;;;;
2023/12/14 13:22:13;;;;;;;17.5;10.5;;;;;;;5.31;86.98;;;;;
2023/12/14 13:33:13;;;;;;;19.2;11.2;;;;;;;5.24;87.06;;;;;
2023/12/14 13:44:13;;;;;;;19.2;11.2;;;;;;;5.22;87.4;;;;;
2023/12/14 13:54:13;;;;;;;19.2;11.2;;;;;;;5.37;87.35;;;;;
2023/12/14 14:05:13;;;;;;;23;14.1;;;;;;;5.14;87.71;;;;;
2023/12/14 14:15:13;;;;;;;23;14.1;;;;;;;5.2;87.64;;;;;
2023/12/14 14:25:13;;;;;;;23;14.1;;;;;;;5.09;88.21;;;;;
2023/12/14 14:36:13;;;;;;;25.1;16.2;;;;;;;4.78;89.1;;;;;
2023/12/14 14:46:13;;;;;;;25.1;16.2;;;;;;;4.8;89.3;;;;;
2023/12/14 14:57:13;;;;;;;25.1;16.2;;;;;;;4.85;89.74;;;;;
2023/12/14 15:08:13;;;;;;;26.2;16.2;;;;;;;5.04;89.52;;;;;
2023/12/14 15:19:13;;;;;;;26.2;16.2;;;;;;;5.07;89.23;;;;;
2023/12/14 15:29:13;;;;;;;26.2;16.2;;;;;;;5.05;89.33;;;;;
2023/12/14 15:40:13;;;;;;;34.3;19;;;;;;;5;89.48;;;;;
2023/12/14 15:50:13;;;;;;;34.3;19;;;;;;;5.02;89.8;;;;;
2023/12/14 16:01:14;;;;;;;39.9;23.7;;;;;;;5.02;89.62;;;;;
2023/12/14 16:12:13;;;;;;;39.9;23.7;;;;;;;5.03;89.25;;;;;
2023/12/14 16:22:13;;;;;;;39.9;23.7;;;;;;;5;89.63;;;;;
2023/12/14 16:33:13;;;;;;;38.6;22.2;;;;;;;4.94;89.69;;;;;
2023/12/14 16:43:18;;;;;;;38.6;22.2;;;;;;;5.04;89.72;;;;;
2023/12/14 16:53:13;;;;;;;38.6;22.2;;;;;;;5.06;89.95;;;;;
2023/12/14 17:04:13;;;;;;;46.6;24.1;;;;;;;4.97;90.06;;;;;
2023/12/14 17:14:13;;;;;;;46.6;24.1;;;;;;;4.91;90.19;;;;;
2023/12/14 17:25:13;;;;;;;46.6;24.1;;;;;;;4.86;90.36;;;;;
2023/12/14 17:35:13;;;;;;;42.6;24.9;;;;;;;4.87;90.38;;;;;
2023/12/14 17:46:14;;;;;;;42.6;24.9;;;;;;;4.86;90.15;;;;;
2023/12/14 17:57:13;;;;;;;42.6;24.9;;;;;;;4.82;90.48;;;;;
2023/12/14 18:08:13;;;;;;;36;22.1;;;;;;;4.79;90.49;;;;;
2023/12/14 18:18:13;;;;;;;36;22.1;;;;;;;4.81;90.45;;;;;
2023/12/14 18:28:13;;;;;;;36;22.1;;;;;;;4.79;90.44;;;;;
2023/12/14 18:39:13;;;;;;;32.5;20.5;;;;;;;4.73;90.75;;;;;
2023/12/14 18:49:13;;;;;;;32.5;20.5;;;;;;;4.77;90.47;;;;;
2023/12/14 19:00:13;;;;;;;32.3;19.5;;;;;;;4.65;90.49;;;;;
2023/12/14 19:10:13;;;;;;;32.3;19.5;;;;;;;4.68;90.41;;;;;
2023/12/14 19:21:13;;;;;;;32.3;19.5;;;;;;;4.59;90.57;;;;;
2023/12/14 19:31:13;;;;;;;27;17.8;;;;;;;4.61;90.6;;;;;
2023/12/14 19:42:13;;;;;;;27;17.8;;;;;;;4.6;90.58;;;;;
2023/12/14 19:53:13;;;;;;;27;17.8;;;;;;;4.56;90.47;;;;;
2023/12/14 20:03:14;;;;;;;26.9;15;;;;;;;4.56;90.43;;;;;
2023/12/14 20:14:13;;;;;;;26.9;15;;;;;;;4.45;90.73;;;;;
2023/12/14 20:25:13;;;;;;;26.9;15;;;;;;;4.45;90.89;;;;;
2023/12/14 20:35:13;;;;;;;28.9;17.1;;;;;;;4.39;91.12;;;;;
2023/12/14 20:45:13;;;;;;;28.9;17.1;;;;;;;4.39;90.72;;;;;
2023/12/14 20:55:13;;;;;;;28.9;17.1;;;;;;;4.41;90.66;;;;;
2023/12/14 21:05:13;;;;;;;24.2;14.8;;;;;;;4.45;90.19;;;;;
2023/12/14 21:16:13;;;;;;;24.2;14.8;;;;;;;4.44;89.76;;;;;
2023/12/14 21:26:15;;;;;;;24.2;14.8;;;;;;;4.45;89.73;;;;;
2023/12/14 21:36:13;;;;;;;22.3;11.9;;;;;;;4.49;89.67;;;;;
2023/12/14 21:47:13;;;;;;;22.3;11.9;;;;;;;4.38;89.74;;;;;
2023/12/14 21:57:13;;;;;;;22.3;11.9;;;;;;;4.28;90.03;;;;;
2023/12/14 22:08:13;;;;;;;23.9;13;;;;;;;4.05;90.51;;;;;
2023/12/14 22:18:13;;;;;;;23.9;13;;;;;;;4.02;90.43;;;;;
2023/12/14 22:29:13;;;;;;;21.9;12.8;;;;;;;4.08;89.69;;;;;
2023/12/14 22:40:13;;;;;;;21.9;12.8;;;;;;;4.11;88.98;;;;;
2023/12/14 22:50:13;;;;;;;21.9;12.8;;;;;;;3.94;88.69;;;;;
2023/12/14 23:01:13;;;;;;;19.8;10.1;;;;;;;3.94;89.05;;;;;
2023/12/14 23:11:13;;;;;;;19.8;10.1;;;;;;;3.96;89.34;;;;;
2023/12/14 23:22:13;;;;;;;19.8;10.1;;;;;;;3.91;89.34;;;;;
2023/12/14 23:33:13;;;;;;;15.8;9;;;;;;;3.66;89.53;;;;;
2023/12/14 23:44:13;;;;;;;15.8;9;;;;;;;3.63;89.33;;;;;
2023/12/14 23:55:13;;;;;;;15.8;9;;;;;;;3.55;89.26;;;;;
